AirNav   Everest Fuels
 
 1662 users online  

0MU6 Bradbury-Rolf Memorial Heliport
Higginsville, Missouri, USA

GOING TO HIGGINSVILLE?


FAA INFORMATION EFFECTIVE 17 JUNE 2021

Location

FAA Identifier: 0MU6
Lat/Long: 39-04-25.4400N 093-44-09.2200W
39-04.424000N 093-44.153667W
39.0737333,-93.7358944
(estimated)
Elevation: 815 ft. / 248 m (estimated)
Variation: 04E (1995)
Time zone: UTC -5 (UTC -6 during Standard Time)
Zip code: 64037

Heliport Operations

Heliport use: Private use, MEDICAL
Activation date: 09/1996
Control tower: no
ARTCC: KANSAS CITY CENTER
FSS: COLUMBIA FLIGHT SERVICE STATION
Attendance: UNATNDD
Wind indicator: yes
Segmented circle: no
Lights: FOR FLOOD LGTS CALL 660-584-3832.

Heliport Communications

WX AWOS-3PT at RCM (18 nm S): 119.575 (660-422-7010)

Nearby radio navigation aids

VOR radial/distance  VOR name  Freq  Var
ANXr087/18.3NAPOLEON VORTAC114.0007E
BQSr166/34.0BRAYMER VOR/DME111.2003E

Heliport Services

Runway Information

Helipad H1

Dimensions: 60 x 60 ft. / 18 x 18 m
Surface: concrete
Runway edge lights: FLD
Runway edge markings: MARKED WITH LETTER H.
Latitude: 39-04.424000N
Longitude: 093-44.153667W
Elevation: 815.0 ft.
Traffic pattern: leftleft

Heliport Ownership and Management from official FAA records

Ownership: Privately-owned
Owner: FAMILY PRACTICE ASSOC
1200 W 22ND
HIGGINSVILLE, MO 64037
Phone (660) 584-7751
Manager: ROD KIRCHHOFF
850 WILLOW CREEK LN
HIGGINSVILLE, MO 64037
Phone (816) 565-3685

Additional Remarks

A52-H1 30-40 FT PLINES MKD E & S OF HELIPAD.
FOR CD CTC WHITEMAN APCH AT 660-687-3132. WHEN WHITEMAN APCH IS CLSD, CTC KANSAS CITY ARTCC AT 913-254-8508.

Instrument Procedures

There are no published instrument procedures at 0MU6.

Some nearby airports with instrument procedures:

KHIG - Higginsville Industrial Municipal Airport (3 nm E)
KRCM - Skyhaven Airport (18 nm S)
KSZL - Whiteman Air Force Base (22 nm SE)
3GV - East Kansas City Airport (23 nm W)
KMHL - Marshall Memorial Municipal Airport (25 nm E)
 
Loc | Ops | Rwys | IFR | FBO | Links
Com | Nav | Svcs | Stats | Notes
Area around 0MU6 (Bradbury-Rolf Memorial Heliport)
 
Road maps at: MapQuest Bing Google
 
Aerial photo
No photo
 
Sectional chart

 
Airport distance calculator
Flying to Bradbury-Rolf Memorial Heliport? Find the distance to fly.

From to 0MU6

Sunrise and sunset
Times for 24-Jun-2021
 Local
(UTC-5)
 Zulu
(UTC)
Morning civil twilight05:1910:19
Sunrise05:5110:51
Sunset20:4401:44
Evening civil twilight21:1602:16

Current date and time
Zulu (UTC)  24-Jun-2021 18:31:22
Local (UTC-5)  24-Jun-2021 13:31:22
 
METAR
KRCM 
18nm S 
241815Z AUTO 13015G18KT 10SM SCT012 SCT017 24/22 A2987 RMK AO2 LTG DSNT NW THRU E
KSZL 
23nm SE 
241756Z 15010KT 6SM -RA SCT015 OVC080 24/23 A2988 RMK AO2A LTG DSNT E AND S SLP114 P0001 60029 T02400228 10242 20223 58017 $
KMHL 
25nm E 
241815Z AUTO 16014G21KT 10SM -RA CLR 23/21 A2990 RMK AO2 LTG DSNT SE AND W
KLXT 
30nm W 
241816Z AUTO 15010G19KT 10SM SCT013 SCT026 25/23 A2987 RMK AO2 LTG DSNT N T02500228
KGPH 
31nm NW 
241755Z AUTO 18008KT 10SM TS 25/22 A2990 RMK AO2 LTG DSNT N SE AND NW
KDMO 
34nm SE 
241813Z AUTO 15014G23KT 10SM FEW004 SCT023 23/22 A2993 RMK AO2 LTG DSNT E AND SE T02330217
TAF
KSZL 
23nm SE 
241603Z 2416/2517 18012KT 8000 -RA FEW015 OVC030 QNH2978INS TEMPO 2416/2417 19015G25KT 1600 TSRA OVC015CB BECMG 2419/2420 17015G30KT 9999 NSW FEW030 BKN200 QNH2966INS TEMPO 2507/2513 20025G35KT 4800 TSRAGR BKN030CB BECMG 2514/2515 20015G25KT 9999 BKN030 QNH2982INS TX33/2421Z TN23/2416Z
NOTAMs
Click for the latest NOTAMs
NOTAMs are issued by the DoD/FAA and will open in a separate window not controlled by AirNav.

 

 
 

Would you like to see your business listed on this page?

 If your business provides an interesting product or service to pilots, flight crews, aircraft, or users of the Bradbury-Rolf Memorial Heliport, you should consider listing it here.  To start the listing process, click on the button below
 
Add a business
 

Other Pages about Bradbury-Rolf Memorial Heliport

Update a link
 
Copyright © AirNav, LLC. All rights reserved. Privacy Policy  Contact